createdAt,value
2019-04-07T00:00:29.415Z,48.27
2019-04-07T00:03:00.223Z,48.60
2019-04-07T00:05:31.051Z,46.60
2019-04-07T00:08:02.776Z,45.63
2019-04-07T00:10:34.264Z,45.30
2019-04-07T00:13:05.304Z,45.67
2019-04-07T00:15:37.756Z,43.77
2019-04-07T00:18:10.439Z,45.63
2019-04-07T00:20:42.029Z,45.50
2019-04-07T00:23:14.811Z,42.70
2019-04-07T00:25:45.969Z,43.97
2019-04-07T00:28:20.508Z,44.87
2019-04-07T00:30:55.462Z,44.37
2019-04-07T00:33:26.261Z,44.20
2019-04-07T00:35:56.965Z,45.47
2019-04-07T00:38:28.283Z,45.13
2019-04-07T00:40:59.238Z,43.50
2019-04-07T00:43:30.036Z,44.17
2019-04-07T00:46:02.417Z,42.47
2019-04-07T00:48:33.964Z,43.20
2019-04-07T00:51:05.143Z,43.60
2019-04-07T00:53:36.548Z,43.90
2019-04-07T00:56:09.298Z,44.03
2019-04-07T00:58:39.930Z,43.23
2019-04-07T01:01:12.277Z,44.07
2019-04-07T01:03:43.049Z,42.57
2019-04-07T01:06:14.070Z,43.23
2019-04-07T01:08:44.851Z,42.00
2019-04-07T01:11:16.762Z,42.63
2019-04-07T01:13:47.415Z,41.20
2019-04-07T01:16:17.920Z,41.27
2019-04-07T01:18:49.117Z,40.37
2019-04-07T01:21:20.845Z,41.67
2019-04-07T01:23:53.222Z,41.07
2019-04-07T01:26:23.908Z,39.53
2019-04-07T01:28:55.684Z,40.17
2019-04-07T01:31:28.624Z,39.53
2019-04-07T01:34:00.031Z,39.13
2019-04-07T01:36:30.536Z,40.30
2019-04-07T01:39:01.484Z,39.70
2019-04-07T01:41:48.391Z,41.20
2019-04-07T01:44:37.886Z,41.43
2019-04-07T01:47:31.205Z,38.57
2019-04-07T01:50:23.256Z,38.47
2019-04-07T01:53:15.530Z,37.80
2019-04-07T01:56:03.500Z,36.53
2019-04-07T01:59:12.092Z,37.47
2019-04-07T02:02:02.069Z,37.27
2019-04-07T02:04:55.464Z,38.00
2019-04-07T02:07:43.654Z,37.33
2019-04-07T02:10:30.688Z,36.03
2019-04-07T02:13:16.540Z,36.60
2019-04-07T02:16:12.327Z,34.73
2019-04-07T02:18:56.343Z,35.20
2019-04-07T02:21:40.739Z,36.23
2019-04-07T02:24:29.900Z,34.63
2019-04-07T02:27:23.988Z,35.93
2019-04-07T02:30:14.526Z,35.57
2019-04-07T02:32:54.419Z,35.27
2019-04-07T02:35:45.032Z,36.00
2019-04-07T02:38:34.573Z,35.03
2019-04-07T02:41:16.310Z,35.13
2019-04-07T02:44:01.651Z,36.07
2019-04-07T02:46:50.292Z,36.93
2019-04-07T02:49:39.297Z,39.40
2019-04-07T02:52:27.981Z,37.37
2019-04-07T02:55:20.019Z,36.87
2019-04-07T02:58:13.592Z,40.30
2019-04-07T03:01:04.775Z,40.47
2019-04-07T03:04:03.444Z,39.53
2019-04-07T03:07:02.706Z,40.00
2019-04-07T03:09:48.230Z,40.87
2019-04-07T03:12:38.071Z,41.43
2019-04-07T03:15:32.738Z,40.37
2019-04-07T03:18:23.786Z,41.47
2019-04-07T03:21:26.817Z,39.70
2019-04-07T03:24:19.510Z,40.53
2019-04-07T03:27:08.089Z,41.40
2019-04-07T03:29:59.017Z,41.43
2019-04-07T03:32:46.719Z,41.37
2019-04-07T03:35:41.120Z,42.77
2019-04-07T03:38:41.127Z,43.67
2019-04-07T03:41:43.999Z,43.17
2019-04-07T03:44:21.401Z,41.00
2019-04-07T03:47:10.104Z,42.93
2019-04-07T03:49:49.604Z,43.33
2019-04-07T03:52:32.130Z,44.20
2019-04-07T03:55:36.922Z,42.27
2019-04-07T03:58:25.904Z,42.80
2019-04-07T04:01:33.666Z,43.60
2019-04-07T04:04:34.150Z,42.43
2019-04-07T04:07:29.977Z,41.37
2019-04-07T04:10:08.432Z,42.43
2019-04-07T04:12:45.759Z,42.97
2019-04-07T04:15:36.393Z,43.50
2019-04-07T04:18:08.522Z,44.60
2019-04-07T04:20:41.005Z,43.27
2019-04-07T04:23:12.668Z,45.60
2019-04-07T04:25:43.428Z,42.23
2019-04-07T04:28:16.244Z,45.03
2019-04-07T04:30:47.015Z,46.60
2019-04-07T04:33:20.229Z,45.50
2019-04-07T04:35:51.721Z,43.93
2019-04-07T04:38:22.382Z,47.60
2019-04-07T04:40:53.265Z,46.00
2019-04-07T04:43:25.485Z,48.07
2019-04-07T04:45:56.834Z,46.50
2019-04-07T04:48:27.884Z,44.70
2019-04-07T04:50:58.673Z,46.00
2019-04-07T04:53:32.095Z,45.67
2019-04-07T04:56:04.070Z,48.77
2019-04-07T04:58:34.951Z,45.87
2019-04-07T05:01:06.335Z,48.27
2019-04-07T05:03:37.219Z,49.23
2019-04-07T05:06:09.096Z,52.87
2019-04-07T05:08:40.058Z,54.63
2019-04-07T05:11:12.509Z,54.53
2019-04-07T05:13:45.348Z,52.10
2019-04-07T05:16:16.360Z,54.90
2019-04-07T05:18:46.933Z,55.70
2019-04-07T05:21:17.463Z,53.03
2019-04-07T05:23:48.784Z,50.33
2019-04-07T05:26:20.292Z,51.03
2019-04-07T05:28:50.848Z,50.80
2019-04-07T05:31:21.490Z,50.63
2019-04-07T05:33:55.347Z,52.53
2019-04-07T05:36:26.855Z,52.37
2019-04-07T05:38:58.263Z,50.60
2019-04-07T05:41:30.458Z,52.30
2019-04-07T05:44:03.549Z,53.93
2019-04-07T05:46:38.544Z,52.17
2019-04-07T05:49:07.633Z,50.90
2019-04-07T05:51:38.307Z,52.60
2019-04-07T05:54:16.398Z,54.10
2019-04-07T05:56:46.948Z,53.87
2019-04-07T05:59:17.680Z,53.80
2019-04-07T06:01:50.697Z,50.97
2019-04-07T06:04:20.711Z,51.67
2019-04-07T06:06:54.867Z,50.97
2019-04-07T06:09:26.407Z,51.17
2019-04-07T06:11:59.879Z,47.70
2019-04-07T06:14:30.813Z,47.57
2019-04-07T06:17:04.832Z,46.33
2019-04-07T06:19:39.513Z,44.10
2019-04-07T06:22:08.645Z,45.67
2019-04-07T06:24:40.700Z,44.97
2019-04-07T06:27:13.821Z,43.30
2019-04-07T06:29:44.708Z,43.43
2019-04-07T06:32:15.626Z,41.93
2019-04-07T06:34:48.999Z,41.33
2019-04-07T06:37:25.862Z,40.40
2019-04-07T06:39:54.819Z,38.20
2019-04-07T06:42:26.705Z,35.97
2019-04-07T06:44:59.793Z,38.50
2019-04-07T06:47:49.769Z,36.33
2019-04-07T06:50:47.747Z,38.23
2019-04-07T06:53:23.594Z,36.00
2019-04-07T06:56:03.045Z,36.93
2019-04-07T06:58:51.561Z,35.37
2019-04-07T07:01:41.802Z,34.73
2019-04-07T07:04:31.345Z,32.80
2019-04-07T07:07:30.128Z,32.97
2019-04-07T07:10:35.559Z,34.33
2019-04-07T07:13:32.396Z,33.70
2019-04-07T07:16:20.807Z,35.07
2019-04-07T07:19:09.497Z,34.23
2019-04-07T07:21:46.830Z,30.93
2019-04-07T07:24:22.704Z,32.47
2019-04-07T07:26:50.493Z,30.40
2019-04-07T07:29:26.643Z,31.63
2019-04-07T07:32:03.123Z,31.50
2019-04-07T07:34:30.452Z,29.97
2019-04-07T07:37:01.246Z,30.67
2019-04-07T07:39:31.913Z,29.33
2019-04-07T07:42:03.959Z,28.47
2019-04-07T07:44:38.196Z,29.47
2019-04-07T07:47:09.097Z,30.73
2019-04-07T07:49:40.961Z,29.13
2019-04-07T07:52:12.591Z,28.10
2019-04-07T07:54:45.842Z,28.80
2019-04-07T07:57:16.318Z,27.93
2019-04-07T07:59:47.290Z,28.13
2019-04-07T08:02:19.949Z,29.23
2019-04-07T08:04:51.083Z,26.67
2019-04-07T08:07:22.656Z,28.23
2019-04-07T08:09:56.023Z,27.63
2019-04-07T08:12:27.158Z,27.23
2019-04-07T08:14:58.714Z,26.87
2019-04-07T08:17:39.160Z,26.00
2019-04-07T08:20:14.256Z,25.53
2019-04-07T08:22:45.051Z,24.60
2019-04-07T08:25:16.331Z,25.23
2019-04-07T08:27:47.670Z,24.40
2019-04-07T08:30:18.537Z,24.40
2019-04-07T08:32:50.079Z,23.00
2019-04-07T08:35:22.217Z,23.43
2019-04-07T08:37:53.437Z,23.87
2019-04-07T08:40:26.334Z,23.03
2019-04-07T08:42:57.293Z,22.80
2019-04-07T08:45:30.059Z,22.57
2019-04-07T08:48:00.762Z,22.23
2019-04-07T08:50:32.120Z,22.37
2019-04-07T08:53:03.180Z,21.90
2019-04-07T08:55:34.469Z,20.80
2019-04-07T08:58:05.867Z,18.97
2019-04-07T09:00:41.593Z,17.90
2019-04-07T09:03:17.172Z,18.60
2019-04-07T09:05:48.291Z,16.67
2019-04-07T09:08:19.304Z,18.33
2019-04-07T09:11:15.855Z,17.07
2019-04-07T09:13:51.723Z,17.10
2019-04-07T09:16:56.107Z,16.10
2019-04-07T09:19:46.867Z,14.77
2019-04-07T09:22:39.078Z,14.73
2019-04-07T09:25:28.307Z,14.67
2019-04-07T09:28:26.595Z,13.40
2019-04-07T09:31:22.446Z,14.43
2019-04-07T09:34:01.288Z,13.10
2019-04-07T09:36:51.586Z,13.43
2019-04-07T09:39:56.258Z,14.47
2019-04-07T09:42:30.791Z,14.00
2019-04-07T09:45:12.434Z,12.87
2019-04-07T09:48:10.885Z,13.47
2019-04-07T09:51:11.168Z,12.67
2019-04-07T09:54:00.798Z,12.17
2019-04-07T09:56:49.819Z,12.20
2019-04-07T09:59:46.674Z,10.33
2019-04-07T10:02:51.517Z,10.93
2019-04-07T10:05:45.331Z,11.33
2019-04-07T10:08:45.541Z,10.35
2019-04-07T10:11:34.807Z,11.15
2019-04-07T10:14:23.778Z,11.33
2019-04-07T10:17:03.746Z,10.65
2019-04-07T10:19:53.884Z,10.63
2019-04-07T10:22:47.283Z,10.95
2019-04-07T10:25:39.123Z,9.78
2019-04-07T10:28:30.087Z,10.18
2019-04-07T10:31:19.508Z,10.10
2019-04-07T10:34:12.380Z,9.38
2019-04-07T10:37:19.092Z,10.18
2019-04-07T10:40:21.955Z,9.68
2019-04-07T10:43:04.194Z,9.38
2019-04-07T10:45:46.518Z,9.28
2019-04-07T10:48:34.742Z,9.38
2019-04-07T10:51:39.714Z,9.15
2019-04-07T10:54:28.737Z,9.28
2019-04-07T10:57:18.873Z,10.53
2019-04-07T11:00:07.535Z,10.23
2019-04-07T11:02:57.603Z,10.20
2019-04-07T11:05:42.754Z,11.30
2019-04-07T11:08:37.825Z,11.03
2019-04-07T11:11:30.407Z,10.73
2019-04-07T11:14:35.072Z,11.83
2019-04-07T11:17:39.475Z,11.67
2019-04-07T11:20:14.917Z,11.17
2019-04-07T11:23:27.121Z,11.00
2019-04-07T11:26:13.806Z,10.77
2019-04-07T11:29:03.297Z,10.23
2019-04-07T11:31:41.801Z,10.53
2019-04-07T11:34:21.691Z,10.87
2019-04-07T11:37:11.012Z,9.67
2019-04-07T11:40:04.806Z,9.03
2019-04-07T11:42:57.826Z,9.20
2019-04-07T11:46:00.076Z,9.38
2019-04-07T11:48:53.582Z,9.73
2019-04-07T11:51:46.758Z,10.35
2019-04-07T11:54:45.716Z,11.00
2019-04-07T11:58:00.667Z,10.35
2019-04-07T12:00:41.686Z,10.05
2019-04-07T12:03:32.203Z,10.00
2019-04-07T12:06:25.494Z,10.40
2019-04-07T12:09:15.181Z,10.32
2019-04-07T12:12:03.720Z,10.28
2019-04-07T12:15:09.480Z,10.03
2019-04-07T12:18:08.480Z,11.15
2019-04-07T12:20:51.804Z,11.03
2019-04-07T12:23:52.071Z,11.00
2019-04-07T12:26:38.041Z,10.65
2019-04-07T12:29:18.746Z,11.57
2019-04-07T12:32:07.387Z,11.15
2019-04-07T12:34:55.075Z,9.68
2019-04-07T12:37:43.728Z,10.20
2019-04-07T12:40:32.293Z,10.13
2019-04-07T12:43:18.590Z,9.68
2019-04-07T12:46:19.330Z,10.65
2019-04-07T12:49:09.672Z,8.98
2019-04-07T12:52:03.164Z,10.15
2019-04-07T12:54:43.677Z,10.25
2019-04-07T12:57:26.160Z,10.25
2019-04-07T13:00:22.717Z,9.15
2019-04-07T13:03:01.706Z,9.65
2019-04-07T13:05:48.744Z,9.93
2019-04-07T13:08:57.208Z,10.88
2019-04-07T13:11:50.506Z,10.55
2019-04-07T13:14:40.065Z,10.85
2019-04-07T13:17:37.780Z,10.72
2019-04-07T13:20:27.301Z,10.43
2019-04-07T13:23:12.292Z,10.13
2019-04-07T13:25:53.168Z,10.58
2019-04-07T13:28:46.141Z,10.63
2019-04-07T13:31:34.517Z,10.25
2019-04-07T13:34:31.170Z,11.15
2019-04-07T13:37:22.223Z,11.08
2019-04-07T13:40:19.851Z,10.75
2019-04-07T13:43:09.480Z,10.85
2019-04-07T13:46:17.162Z,12.30
2019-04-07T13:49:02.760Z,11.40
2019-04-07T13:54:42.256Z,10.78
2019-04-07T13:57:50.353Z,11.65
2019-04-07T14:00:40.585Z,11.90
2019-04-07T14:03:33.773Z,11.47
2019-04-07T14:06:14.666Z,11.80
2019-04-07T14:09:02.494Z,12.27
2019-04-07T14:12:06.245Z,11.37
2019-04-07T14:14:51.514Z,11.80
2019-04-07T14:17:48.140Z,11.70
2019-04-07T14:20:32.142Z,11.97
2019-04-07T14:23:29.787Z,11.90
2019-04-07T14:26:23.654Z,11.87
2019-04-07T14:29:19.532Z,11.83
2019-04-07T14:32:03.117Z,11.73
2019-04-07T14:34:53.010Z,12.00
2019-04-07T14:37:42.934Z,12.60
2019-04-07T14:40:30.092Z,11.80
2019-04-07T14:43:17.749Z,11.50
2019-04-07T14:45:53.257Z,11.30
2019-04-07T14:48:43.668Z,12.00
2019-04-07T14:51:36.430Z,12.03
2019-04-07T14:54:21.175Z,11.73
2019-04-07T14:56:59.510Z,12.90
2019-04-07T14:59:58.966Z,12.37
2019-04-07T15:02:30.263Z,12.10
2019-04-07T15:05:06.125Z,11.90
2019-04-07T15:07:48.391Z,11.70
2019-04-07T15:10:38.096Z,12.50
2019-04-07T15:13:16.036Z,11.57
2019-04-07T15:15:57.084Z,11.80
2019-04-07T15:18:25.632Z,12.30
2019-04-07T15:20:56.245Z,11.50
2019-04-07T15:23:29.579Z,12.23
2019-04-07T15:26:03.251Z,11.80
2019-04-07T15:28:38.380Z,11.57
2019-04-07T15:31:17.617Z,11.57
2019-04-07T15:33:48.067Z,11.17
2019-04-07T15:36:19.644Z,11.18
2019-04-07T15:38:50.897Z,11.20
2019-04-07T15:41:23.299Z,10.83
2019-04-07T15:43:55.176Z,11.50
2019-04-07T15:46:26.748Z,11.43
2019-04-07T15:48:58.261Z,11.20
2019-04-07T15:51:33.831Z,11.57
2019-04-07T15:54:01.242Z,11.93
2019-04-07T15:56:33.673Z,11.50
2019-04-07T15:59:04.960Z,11.45
2019-04-07T16:01:38.011Z,12.75
2019-04-07T16:04:10.214Z,11.28
2019-04-07T16:06:41.871Z,11.48
2019-04-07T16:09:28.380Z,11.35
2019-04-07T16:11:50.316Z,11.93
2019-04-07T16:14:23.082Z,11.43
2019-04-07T16:16:54.772Z,11.93
2019-04-07T16:19:37.579Z,12.43
2019-04-07T16:22:00.100Z,11.83
2019-04-07T16:24:31.168Z,11.57
2019-04-07T16:27:06.515Z,12.70
2019-04-07T16:29:37.127Z,11.88
2019-04-07T16:32:08.205Z,12.15
2019-04-07T16:34:41.126Z,11.28
2019-04-07T16:37:11.758Z,11.73
2019-04-07T16:39:42.670Z,11.70
2019-04-07T16:42:14.865Z,13.25
2019-04-07T16:44:46.123Z,12.60
2019-04-07T16:47:22.454Z,13.20
2019-04-07T16:49:50.279Z,12.77
2019-04-07T16:52:22.417Z,12.30
2019-04-07T16:54:54.718Z,12.40
2019-04-07T16:57:28.857Z,12.67
2019-04-07T17:00:01.554Z,12.87
2019-04-07T17:02:32.780Z,12.53
2019-04-07T17:05:06.759Z,12.37
2019-04-07T17:07:39.003Z,12.47
2019-04-07T17:10:11.210Z,13.27
2019-04-07T17:12:42.793Z,13.20
2019-04-07T17:15:14.482Z,12.80
2019-04-07T17:17:45.504Z,13.10
2019-04-07T17:20:18.973Z,12.20
2019-04-07T17:22:50.976Z,12.83
2019-04-07T17:25:22.808Z,12.60
2019-04-07T17:27:53.689Z,12.47
2019-04-07T17:30:28.955Z,12.63
2019-04-07T17:33:03.225Z,12.53
2019-04-07T17:35:35.537Z,13.40
2019-04-07T17:38:08.613Z,13.37
2019-04-07T17:40:47.437Z,13.53
2019-04-07T17:43:48.980Z,13.63
2019-04-07T17:46:32.610Z,12.63
2019-04-07T17:49:35.555Z,13.83
2019-04-07T17:52:29.100Z,13.67
2019-04-07T17:55:16.217Z,13.03
2019-04-07T17:58:03.133Z,13.23
2019-04-07T18:01:09.209Z,13.73
2019-04-07T18:04:11.347Z,12.97
2019-04-07T18:07:04.233Z,12.93
2019-04-07T18:10:00.745Z,13.20
2019-04-07T18:13:02.842Z,13.27
2019-04-07T18:15:54.351Z,12.87
2019-04-07T18:18:43.207Z,16.43
2019-04-07T18:21:25.168Z,18.00
2019-04-07T18:24:14.822Z,13.57
2019-04-07T18:26:52.153Z,14.10
2019-04-07T18:29:38.665Z,14.13
2019-04-07T18:32:22.591Z,14.63
2019-04-07T18:35:11.136Z,13.30
2019-04-07T18:38:10.309Z,13.37
2019-04-07T18:41:09.401Z,13.80
2019-04-07T18:44:07.730Z,13.67
2019-04-07T18:46:57.946Z,15.23
2019-04-07T18:49:48.407Z,15.03
2019-04-07T18:52:29.565Z,14.07
2019-04-07T18:55:27.292Z,16.23
2019-04-07T18:58:24.736Z,19.97
2019-04-07T19:01:24.382Z,27.60
2019-04-07T19:04:12.738Z,15.13
2019-04-07T19:07:02.235Z,14.60
2019-04-07T19:10:03.726Z,14.40
2019-04-07T19:12:43.193Z,13.50
2019-04-07T19:15:40.044Z,13.37
2019-04-07T19:18:33.059Z,16.30
2019-04-07T19:21:25.518Z,16.20
2019-04-07T19:24:10.061Z,13.43
2019-04-07T19:26:56.223Z,13.13
2019-04-07T19:29:43.493Z,13.23
2019-04-07T19:32:36.997Z,14.20
2019-04-07T19:35:37.577Z,13.27
2019-04-07T19:38:29.407Z,12.93
2019-04-07T19:41:13.263Z,14.07
2019-04-07T19:44:13.768Z,13.57
2019-04-07T19:47:00.012Z,13.80
2019-04-07T19:49:58.444Z,13.50
2019-04-07T19:52:38.481Z,14.03
2019-04-07T19:55:29.148Z,14.10
2019-04-07T19:58:11.937Z,14.10
2019-04-07T20:00:56.754Z,14.20
2019-04-07T20:03:52.700Z,13.33
2019-04-07T20:06:39.709Z,13.10
2019-04-07T20:09:39.506Z,13.60
2019-04-07T20:12:34.650Z,14.20
2019-04-07T20:15:24.009Z,13.67
2019-04-07T20:18:10.349Z,14.27
2019-04-07T20:21:08.279Z,14.40
2019-04-07T20:23:46.314Z,14.17
2019-04-07T20:26:38.900Z,13.63
2019-04-07T20:29:33.862Z,14.37
2019-04-07T20:32:25.159Z,15.00
2019-04-07T20:35:28.841Z,14.47
2019-04-07T20:38:09.297Z,15.07
2019-04-07T20:40:46.761Z,14.47
2019-04-07T20:43:40.510Z,14.80
2019-04-07T20:46:23.837Z,14.67
2019-04-07T20:49:17.982Z,15.53
2019-04-07T20:52:25.373Z,15.53
2019-04-07T20:55:21.290Z,15.50
2019-04-07T20:58:20.572Z,15.23
2019-04-07T21:01:04.891Z,16.13
2019-04-07T21:03:49.322Z,16.00
2019-04-07T21:06:52.288Z,15.77
2019-04-07T21:09:41.752Z,15.90
2019-04-07T21:12:45.495Z,15.43
2019-04-07T21:15:39.951Z,16.13
2019-04-07T21:18:34.000Z,16.30
2019-04-07T21:21:12.182Z,17.13
2019-04-07T21:23:50.932Z,16.70
2019-04-07T21:26:45.967Z,17.20
2019-04-07T21:29:32.684Z,16.73
2019-04-07T21:32:20.084Z,16.50
2019-04-07T21:35:10.886Z,17.33
2019-04-07T21:37:58.278Z,17.90
2019-04-07T21:40:56.624Z,17.50
2019-04-07T21:43:42.431Z,17.70
2019-04-07T21:46:32.609Z,17.77
2019-04-07T21:49:20.575Z,18.20
2019-04-07T21:52:06.677Z,18.20
2019-04-07T21:54:59.880Z,18.50
2019-04-07T21:57:43.740Z,19.73
2019-04-07T22:00:34.709Z,18.93
2019-04-07T22:03:26.899Z,19.23
2019-04-07T22:06:16.497Z,19.20
2019-04-07T22:08:53.750Z,19.27
2019-04-07T22:11:29.322Z,19.53
2019-04-07T22:14:04.150Z,20.37
2019-04-07T22:16:35.410Z,19.87
2019-04-07T22:19:10.940Z,19.90
2019-04-07T22:21:48.062Z,19.67
2019-04-07T22:24:19.474Z,20.27
2019-04-07T22:26:51.535Z,21.07
2019-04-07T22:29:24.488Z,20.40
2019-04-07T22:31:58.042Z,19.90
2019-04-07T22:34:32.470Z,20.83
2019-04-07T22:37:05.595Z,21.50
2019-04-07T22:39:39.690Z,21.23
2019-04-07T22:42:15.206Z,21.87
2019-04-07T22:44:45.434Z,21.70
2019-04-07T22:47:19.729Z,21.67
2019-04-07T22:49:52.685Z,21.30
2019-04-07T22:52:27.871Z,23.03
2019-04-07T22:55:04.217Z,22.30
2019-04-07T22:57:35.723Z,23.70
2019-04-07T23:00:10.807Z,23.23
2019-04-07T23:02:48.600Z,23.10
2019-04-07T23:05:23.394Z,24.67
2019-04-07T23:07:54.850Z,23.53
2019-04-07T23:10:27.405Z,24.50
2019-04-07T23:13:01.473Z,24.73
2019-04-07T23:15:40.988Z,25.20
2019-04-07T23:18:05.825Z,24.50
2019-04-07T23:20:39.605Z,25.17
2019-04-07T23:23:11.183Z,26.43
2019-04-07T23:25:42.727Z,25.37
2019-04-07T23:28:14.573Z,26.63
2019-04-07T23:30:47.125Z,25.90
2019-04-07T23:33:19.040Z,25.07
2019-04-07T23:35:50.281Z,27.03
2019-04-07T23:38:21.966Z,26.73
2019-04-07T23:40:53.524Z,27.00
2019-04-07T23:43:25.140Z,24.67
2019-04-07T23:46:02.266Z,26.03
2019-04-07T23:48:34.562Z,26.93
2019-04-07T23:51:07.779Z,26.87
2019-04-07T23:54:12.328Z,28.13
2019-04-07T23:56:44.762Z,27.43
2019-04-07T23:59:18.615Z,27.70
